WetterOnline ( https://www.wetteronline.de )

Wetter aktuell Vogelsberg

Aktuelles Wetter: Hoherodskopf/Vogelsberg (743m)

6-stündlich | Neueste Meldungen
Ortszeit Temperatur Wetter
Mi, 28.09. 14:00 5.1° C Nebel
Mi, 28.09. 8:00 3.9° C Nebel
Mi, 28.09. 2:00 4.3° C Nebel
Di, 27.09. 20:00 4.5° C Regen
Di, 27.09. 14:00 5.4° C Sprühregen
Di, 27.09. 8:00 5.3° C leichter Regen
Di, 27.09. 2:00 6.1° C starker Regen
Mo, 26.09. 20:00 7.4° C Sprühregen
Ortszeit Temperatur Wetter
Mi, 28.09. 15:00 5.6° C bewölkt
Mi, 28.09. 14:50 5.6° C bewölkt
Mi, 28.09. 14:40 5.3° C bewölkt
Mi, 28.09. 14:30 5.4° C bewölkt
Mi, 28.09. 14:20 5.4° C bewölkt
Mi, 28.09. 14:10 5.1° C Sprühregen
Mi, 28.09. 14:00 5.1° C Nebel
Mi, 28.09. 13:30 4.2° C leichter Regen
Mi, 28.09. 13:00 4.4° C Sprühregen
Mi, 28.09. 12:30 4.8° C Nebel
Mi, 28.09. 12:00 4.1° C Sprühregen
Ortszeit Relative Feuchte Sichtweite
Mi, 28.09. 14:00 100% 100 m
Mi, 28.09. 8:00 100% <100 m
Mi, 28.09. 2:00 100% <100 m
Di, 27.09. 20:00 99% 0.8 km
Di, 27.09. 14:00 100% 10 km
Di, 27.09. 8:00 100% <100 m
Di, 27.09. 2:00 100% 100 m
Mo, 26.09. 20:00 92% 35 km
Ortszeit Relative Feuchte Sichtweite
Mi, 28.09. 15:00 96% 55 km
Mi, 28.09. 14:50 96% -
Mi, 28.09. 14:40 98% -
Mi, 28.09. 14:30 98% 27 km
Mi, 28.09. 14:20 98% -
Mi, 28.09. 14:10 100% -
Mi, 28.09. 14:00 100% 100 m
Mi, 28.09. 13:30 99% 9 km
Mi, 28.09. 13:00 100% 0.5 km
Mi, 28.09. 12:30 100% 100 m
Mi, 28.09. 12:00 100% 0.6 km
Ortszeit Niederschlagsmenge Niederschlagsart
Mi, 28.09. 14:00 1 l/m2 in 6 Std. Regen
Mi, 28.09. 8:00 7 l/m2 in 12 Std. Schnee, Regen
Mi, 28.09. 2:00 2 l/m2 in 6 Std. Regen
Di, 27.09. 20:00 5 l/m2 in 12 Std. Regen
Di, 27.09. 14:00 1 l/m2 in 6 Std. Regen
Di, 27.09. 8:00 18 l/m2 in 12 Std. Regen
Di, 27.09. 2:00 10 l/m2 in 6 Std. Regen
Mo, 26.09. 20:00 0.3 l/m2 in 12 Std. Regen
Ortszeit Niederschlagsmenge Niederschlagsart
Mi, 28.09. 15:00 <0.05 l/m2 in 1 Std. Sprühregen
Mi, 28.09. 14:50 keine Meldung -
Mi, 28.09. 14:40 keine Meldung -
Mi, 28.09. 14:30 <0.05 l/m2 in 1 Std. Schnee
Mi, 28.09. 14:20 keine Meldung -
Mi, 28.09. 14:10 keine Meldung -
Mi, 28.09. 14:00 0.7 l/m2 in 1 Std. Regen
Mi, 28.09. 13:30 0.6 l/m2 in 1 Std. -
Mi, 28.09. 13:00 0.3 l/m2 in 1 Std. Regen
Mi, 28.09. 12:30 0.3 l/m2 in 1 Std. -
Mi, 28.09. 12:00 0.2 l/m2 in 1 Std. Regen
Ortszeit Stärke Spitze Richtung
km/h Bft. km/h Grad Sektor
Mi, 28.09. 14:00 22 4 43 280° W
Mi, 28.09. 8:00 25 4 47 290° W
Mi, 28.09. 2:00 22 4 40 200° S
Di, 27.09. 20:00 22 4 41 280° W
Di, 27.09. 14:00 22 4 47 260° W
Di, 27.09. 8:00 28 4 56 270° W
Di, 27.09. 2:00 29 5 65 210° SW
Mo, 26.09. 20:00 28 4 46 190° S
Ortszeit Stärke Spitze Richtung
km/h Bft. km/h Grad Sektor
Mi, 28.09. 15:00 22 4 40 270° W
Mi, 28.09. 14:50 22 4 - 270° W
Mi, 28.09. 14:40 25 4 - 280° W
Mi, 28.09. 14:30 24 4 37 270° W
Mi, 28.09. 14:20 24 4 - 270° W
Mi, 28.09. 14:10 22 4 - 260° W
Mi, 28.09. 14:00 22 4 32 280° W
Mi, 28.09. 13:30 20 4 31 280° W
Mi, 28.09. 13:00 22 4 36 260° W
Mi, 28.09. 12:30 18 3 29 280° W
Mi, 28.09. 12:00 22 4 36 280° W
Ortszeit Untergrenze Bedeckung Gattung
total tief tief mittel hoch
Mi, 28.09. 14:00 <30 m 7/8 0/8 - - -
Mi, 28.09. 8:00 <30 m 8/8 0/8 - - -
Mi, 28.09. 2:00 <30 m 8/8 0/8 - - -
Di, 27.09. 20:00 <30 m 7/8 0/8 - - -
Di, 27.09. 14:00 60 m 8/8 8/8 - - -
Di, 27.09. 8:00 <30 m 8/8 0/8 - - -
Di, 27.09. 2:00 <30 m 8/8 0/8 - - -
Mo, 26.09. 20:00 330 m 8/8 8/8 - - -
Ortszeit Bedeckungsgrad in Achtel und Wolkenuntergrenze
Mi, 28.09. 15:00 5(150m) 7(480m) 7(900m)
Mi, 28.09. 14:50 5(150m) 7(480m) 7(900m)
Mi, 28.09. 14:40 7
Mi, 28.09. 14:30 4(30m) 7(330m) 7(720m)
Mi, 28.09. 14:20 4(30m) 7(330m) 7(720m)
Mi, 28.09. 14:10 8
Mi, 28.09. 14:00 7(<30m) 7(210m)
Mi, 28.09. 13:30 5(<30m) 7(90m) 7(480m)
Mi, 28.09. 13:00 7(30m) 7(150m)
Mi, 28.09. 12:30 7(30m) 7(180m)
Mi, 28.09. 12:00 7(30m)
Ortszeit Luftdruck NN (hPa) Tendenz (hPa in 3 Std.)
Mi, 28.09. 14:00 998 + 1,0
Mi, 28.09. 8:00 996 - 0,2
Mi, 28.09. 2:00 998 - 2,0
Di, 27.09. 20:00 1000 + 0,4
Di, 27.09. 14:00 1000 + 0,2
Di, 27.09. 8:00 997 + 1,2
Di, 27.09. 2:00 997 - 2,5
Mo, 26.09. 20:00 1001 - 2,3
Ortszeit Luftdruck NN (hPa) Tendenz (hPa in 3 Std.)
Mi, 28.09. 15:00 998 + 0,6
Mi, 28.09. 14:50 998 keine Meldung
Mi, 28.09. 14:40 998 keine Meldung
Mi, 28.09. 14:30 998 + 0,7
Mi, 28.09. 14:20 998 keine Meldung
Mi, 28.09. 14:10 998 keine Meldung
Mi, 28.09. 14:00 998 + 1,0
Mi, 28.09. 13:30 999 + 1,3
Mi, 28.09. 13:00 998 + 1,5
Mi, 28.09. 12:30 998 + 1,6
Mi, 28.09. 12:00 998 + 1,8
Ortszeit Schneehöhe (cm)
Mi, 28.09. 14:00 0
Mi, 28.09. 8:00 0
Mi, 28.09. 2:00 0
Di, 27.09. 20:00 0
Di, 27.09. 14:00 0
Di, 27.09. 8:00 0
Di, 27.09. 2:00 0
Mo, 26.09. 20:00 0
Ortszeit Schneehöhe (cm)
Mi, 28.09. 15:00 0
Mi, 28.09. 14:50 0
Mi, 28.09. 14:40 0
Mi, 28.09. 14:30 0
Mi, 28.09. 14:20 0
Mi, 28.09. 14:10 0
Mi, 28.09. 14:00 0
Mi, 28.09. 13:30 0
Mi, 28.09. 13:00 0
Mi, 28.09. 12:30 0
Mi, 28.09. 12:00 0
Link zu dieser Seite / Seite empfehlen

Das Wetter in ...